createdAt,value
2022-11-07T00:01:12.008Z,55.73
2022-11-07T00:03:39.628Z,55.65
2022-11-07T00:06:07.566Z,55.70
2022-11-07T00:08:35.131Z,55.68
2022-11-07T00:11:02.833Z,55.64
2022-11-07T00:13:30.391Z,55.73
2022-11-07T00:15:59.500Z,55.87
2022-11-07T00:18:28.399Z,55.57
2022-11-07T00:20:55.999Z,55.59
2022-11-07T00:23:23.583Z,55.70
2022-11-07T00:25:51.159Z,55.77
2022-11-07T00:28:18.730Z,55.72
2022-11-07T00:30:46.295Z,55.67
2022-11-07T00:33:14.260Z,55.84
2022-11-07T00:35:43.587Z,55.77
2022-11-07T00:38:11.279Z,55.71
2022-11-07T00:40:38.803Z,55.85
2022-11-07T00:43:06.362Z,55.81
2022-11-07T00:45:33.953Z,55.89
2022-11-07T00:48:01.529Z,55.79
2022-11-07T00:50:29.191Z,55.96
2022-11-07T00:52:59.397Z,55.77
2022-11-07T00:55:26.972Z,55.78
2022-11-07T00:57:54.529Z,55.87
2022-11-07T01:00:22.339Z,55.84
2022-11-07T01:03:10.120Z,55.84
2022-11-07T01:05:36.864Z,55.88
2022-11-07T01:08:06.300Z,55.81
2022-11-07T01:10:33.883Z,55.79
2022-11-07T01:13:01.591Z,55.88
2022-11-07T01:15:29.159Z,55.95
2022-11-07T01:17:56.775Z,55.81
2022-11-07T01:20:24.368Z,55.92
2022-11-07T01:22:51.928Z,55.76
2022-11-07T01:25:20.932Z,55.92
2022-11-07T01:27:48.681Z,55.96
2022-11-07T01:30:16.350Z,55.83
2022-11-07T01:32:43.952Z,55.96
2022-11-07T01:35:11.479Z,55.92
2022-11-07T01:37:39.044Z,55.97
2022-11-07T01:40:07.498Z,56.01
2022-11-07T01:42:36.480Z,55.98
2022-11-07T01:45:04.286Z,55.94
2022-11-07T01:47:32.708Z,55.86
2022-11-07T01:50:00.365Z,56.05
2022-11-07T01:52:29.184Z,55.87
2022-11-07T01:54:59.009Z,56.00
2022-11-07T01:57:28.495Z,55.85
2022-11-07T01:59:57.834Z,55.88
2022-11-07T02:02:25.457Z,55.99
2022-11-07T02:04:53.276Z,55.98
2022-11-07T02:07:21.677Z,55.84
2022-11-07T02:09:49.262Z,55.98
2022-11-07T02:12:16.879Z,55.96
2022-11-07T02:14:44.494Z,56.10
2022-11-07T02:17:13.725Z,56.02
2022-11-07T02:19:42.098Z,55.91
2022-11-07T02:22:14.604Z,56.04
2022-11-07T02:24:43.491Z,56.07
2022-11-07T02:27:12.800Z,56.03
2022-11-07T02:29:40.690Z,55.98
2022-11-07T02:32:10.123Z,55.95
2022-11-07T02:34:37.701Z,56.01
2022-11-07T02:37:07.035Z,55.95
2022-11-07T02:39:34.631Z,55.92
2022-11-07T02:42:03.612Z,56.03
2022-11-07T02:44:31.341Z,55.88
2022-11-07T02:46:58.943Z,56.04
2022-11-07T02:49:26.632Z,56.13
2022-11-07T02:51:54.277Z,56.17
2022-11-07T02:54:21.872Z,56.01
2022-11-07T02:56:49.424Z,56.13
2022-11-07T02:59:21.771Z,56.07
2022-11-07T03:01:52.112Z,56.08
2022-11-07T03:04:19.767Z,56.14
2022-11-07T03:06:47.404Z,56.05
2022-11-07T03:09:15.151Z,56.14
2022-11-07T03:11:42.723Z,56.05
2022-11-07T03:14:10.307Z,56.09
2022-11-07T03:16:39.313Z,56.04
2022-11-07T03:19:06.892Z,56.27
2022-11-07T03:21:34.448Z,56.09
2022-11-07T03:24:02.022Z,56.14
2022-11-07T03:26:29.741Z,56.08
2022-11-07T03:28:59.229Z,56.06
2022-11-07T03:31:26.944Z,56.12
2022-11-07T03:33:55.881Z,56.12
2022-11-07T03:36:23.453Z,56.21
2022-11-07T03:38:51.035Z,56.08
2022-11-07T03:41:18.666Z,56.15
2022-11-07T03:43:46.316Z,56.17
2022-11-07T03:46:14.071Z,56.21
2022-11-07T03:48:41.668Z,56.29
2022-11-07T03:51:10.797Z,56.10
2022-11-07T03:53:38.339Z,56.19
2022-11-07T03:56:07.175Z,56.13
2022-11-07T03:58:34.742Z,56.27
2022-11-07T04:01:02.399Z,56.19
2022-11-07T04:03:30.006Z,56.16
2022-11-07T04:05:57.600Z,56.07
2022-11-07T04:08:26.504Z,56.23
2022-11-07T04:10:54.130Z,56.14
2022-11-07T04:13:39.172Z,56.22
2022-11-07T04:16:23.472Z,56.21
2022-11-07T04:18:51.083Z,56.12
2022-11-07T04:21:18.646Z,56.07
2022-11-07T04:23:47.547Z,56.15
2022-11-07T04:26:32.594Z,56.21
2022-11-07T04:29:00.175Z,56.16
2022-11-07T04:31:27.837Z,56.17
2022-11-07T04:33:55.449Z,56.21
2022-11-07T04:36:23.035Z,56.28
2022-11-07T04:38:51.985Z,56.24
2022-11-07T04:41:20.239Z,56.16
2022-11-07T04:43:47.796Z,56.20
2022-11-07T04:46:16.155Z,56.24
2022-11-07T04:48:43.789Z,56.13
2022-11-07T04:51:14.781Z,56.11
2022-11-07T04:53:42.355Z,56.29
2022-11-07T04:56:11.305Z,56.33
2022-11-07T04:58:38.874Z,56.34
2022-11-07T05:01:06.455Z,56.20
2022-11-07T05:03:38.881Z,56.31
2022-11-07T05:06:11.028Z,56.35
2022-11-07T05:08:38.612Z,56.12
2022-11-07T05:11:06.431Z,56.23
2022-11-07T05:13:35.399Z,56.27
2022-11-07T05:16:03.030Z,56.18
2022-11-07T05:18:30.644Z,56.22
2022-11-07T05:20:58.263Z,56.33
2022-11-07T05:23:27.788Z,56.27
2022-11-07T05:25:55.448Z,56.23
2022-11-07T05:28:31.171Z,56.18
2022-11-07T05:31:04.995Z,56.22
2022-11-07T05:33:32.699Z,56.36
2022-11-07T05:36:09.687Z,56.25
2022-11-07T05:38:37.475Z,56.23
2022-11-07T05:41:05.251Z,56.21
2022-11-07T05:43:32.821Z,56.38
2022-11-07T05:46:00.646Z,56.21
2022-11-07T05:48:30.458Z,56.38
2022-11-07T05:50:58.154Z,56.23
2022-11-07T05:53:25.756Z,56.38
2022-11-07T05:55:53.580Z,56.13
2022-11-07T05:58:21.695Z,56.26
2022-11-07T06:00:49.331Z,56.28
2022-11-07T06:03:18.463Z,56.27
2022-11-07T06:05:47.804Z,56.34
2022-11-07T06:08:15.483Z,56.35
2022-11-07T06:10:43.511Z,56.32
2022-11-07T06:13:12.318Z,56.56
2022-11-07T06:15:42.392Z,56.47
2022-11-07T06:18:13.452Z,56.35
2022-11-07T06:20:41.015Z,56.35
2022-11-07T06:23:09.961Z,56.19
2022-11-07T06:25:37.615Z,56.40
2022-11-07T06:28:06.051Z,56.32
2022-11-07T06:30:33.674Z,56.35
2022-11-07T06:33:01.769Z,56.36
2022-11-07T06:35:29.506Z,56.31
2022-11-07T06:37:57.085Z,56.28
2022-11-07T06:40:26.027Z,56.35
2022-11-07T06:42:53.564Z,56.38
2022-11-07T06:45:22.090Z,56.44
2022-11-07T06:47:49.719Z,56.40
2022-11-07T06:50:17.499Z,56.36
2022-11-07T06:52:45.216Z,56.30
2022-11-07T06:55:12.778Z,56.40
2022-11-07T06:57:41.736Z,56.33
2022-11-07T07:00:10.792Z,56.36
2022-11-07T07:02:57.500Z,56.37
2022-11-07T07:05:25.976Z,56.35
2022-11-07T07:07:54.881Z,55.81
2022-11-07T07:10:22.488Z,55.30
2022-11-07T07:12:51.379Z,55.76
2022-11-07T07:15:19.089Z,55.75
2022-11-07T07:17:46.656Z,55.70
2022-11-07T07:20:14.311Z,55.71
2022-11-07T07:22:41.887Z,55.65
2022-11-07T07:25:11.470Z,55.98
2022-11-07T07:27:39.067Z,56.27
2022-11-07T07:30:09.632Z,56.11
2022-11-07T07:32:37.304Z,56.38
2022-11-07T07:35:05.556Z,56.38
2022-11-07T07:37:33.146Z,56.43
2022-11-07T07:40:00.713Z,56.52
2022-11-07T07:42:28.340Z,56.56
2022-11-07T07:44:55.916Z,56.64
2022-11-07T07:47:24.952Z,57.04
2022-11-07T07:49:52.503Z,56.83
2022-11-07T07:52:20.085Z,57.44
2022-11-07T07:54:47.744Z,57.42
2022-11-07T07:57:15.346Z,56.92
2022-11-07T07:59:42.948Z,56.58
2022-11-07T08:02:11.501Z,56.03
2022-11-07T08:04:41.447Z,55.95
2022-11-07T08:07:09.097Z,55.81
2022-11-07T08:09:36.925Z,55.91
2022-11-07T08:12:04.673Z,50.60
2022-11-07T08:14:32.778Z,46.44
2022-11-07T08:17:00.416Z,45.52
2022-11-07T08:19:28.024Z,45.06
2022-11-07T08:21:57.017Z,47.54
2022-11-07T08:24:24.637Z,49.13
2022-11-07T08:26:52.201Z,49.87
2022-11-07T08:29:19.739Z,50.50
2022-11-07T08:31:50.482Z,50.85
2022-11-07T08:34:18.567Z,51.19
2022-11-07T08:36:46.152Z,51.35
2022-11-07T08:39:15.120Z,51.83
2022-11-07T08:41:42.704Z,51.68
2022-11-07T08:44:10.396Z,52.86
2022-11-07T08:46:37.931Z,53.24
2022-11-07T08:49:05.613Z,53.18
2022-11-07T08:51:34.011Z,53.56
2022-11-07T08:54:01.585Z,53.70
2022-11-07T08:56:30.684Z,54.11
2022-11-07T08:58:58.293Z,53.86
2022-11-07T09:01:26.049Z,54.50
2022-11-07T09:03:58.001Z,54.60
2022-11-07T09:06:26.221Z,54.84
2022-11-07T09:08:53.806Z,55.07
2022-11-07T09:11:21.977Z,55.24
2022-11-07T09:13:50.900Z,55.35
2022-11-07T09:16:18.500Z,55.39
2022-11-07T09:18:46.285Z,55.64
2022-11-07T09:21:17.800Z,55.54
2022-11-07T09:23:49.567Z,55.77
2022-11-07T09:26:17.342Z,55.81
2022-11-07T09:28:51.663Z,56.06
2022-11-07T09:31:23.206Z,55.95
2022-11-07T09:33:50.791Z,55.90
2022-11-07T09:36:18.405Z,55.97
2022-11-07T09:38:46.017Z,55.95
2022-11-07T09:41:18.291Z,56.09
2022-11-07T09:43:56.422Z,56.28
2022-11-07T09:46:30.482Z,56.42
2022-11-07T09:49:00.516Z,56.28
2022-11-07T09:51:29.867Z,56.23
2022-11-07T09:53:59.162Z,56.45
2022-11-07T09:56:33.239Z,56.59
2022-11-07T09:59:02.365Z,56.68
2022-11-07T10:01:32.457Z,56.67
2022-11-07T10:06:49.270Z,56.79
2022-11-07T10:09:18.794Z,56.98
2022-11-07T10:11:49.564Z,57.14
2022-11-07T10:14:20.917Z,57.03
2022-11-07T10:17:00.319Z,57.02
2022-11-07T10:19:33.811Z,57.12
2022-11-07T10:22:08.592Z,57.30
2022-11-07T10:24:42.771Z,57.22
2022-11-07T10:27:11.290Z,57.40
2022-11-07T10:29:44.790Z,57.42
2022-11-07T10:32:18.216Z,57.63
2022-11-07T10:34:53.154Z,57.79
2022-11-07T10:37:22.043Z,57.72
2022-11-07T10:39:49.679Z,57.67
2022-11-07T10:42:19.128Z,57.05
2022-11-07T10:44:46.732Z,57.03
2022-11-07T10:47:19.061Z,56.69
2022-11-07T10:49:57.417Z,56.67
2022-11-07T10:52:25.062Z,56.57
2022-11-07T10:54:52.636Z,56.55
2022-11-07T10:57:20.909Z,56.63
2022-11-07T10:59:56.327Z,56.44
2022-11-07T11:02:26.528Z,56.57
2022-11-07T11:04:55.658Z,56.34
2022-11-07T11:07:28.541Z,56.23
2022-11-07T11:09:57.986Z,56.12
2022-11-07T11:12:27.000Z,56.10
2022-11-07T11:15:05.119Z,56.66
2022-11-07T11:17:34.854Z,57.24
2022-11-07T11:20:02.449Z,56.73
2022-11-07T11:22:30.244Z,57.04
2022-11-07T11:25:03.299Z,57.04
2022-11-07T11:27:31.579Z,56.82
2022-11-07T11:30:01.409Z,56.72
2022-11-07T11:32:32.522Z,56.84
2022-11-07T11:35:06.267Z,56.56
2022-11-07T11:37:34.814Z,56.39
2022-11-07T11:40:12.795Z,56.92
2022-11-07T11:42:47.044Z,56.76
2022-11-07T11:45:17.247Z,56.90
2022-11-07T11:47:48.439Z,56.70
2022-11-07T11:50:18.628Z,56.67
2022-11-07T11:52:46.367Z,56.59
2022-11-07T11:55:14.614Z,56.84
2022-11-07T11:57:46.904Z,56.69
2022-11-07T12:00:15.277Z,56.88
2022-11-07T12:03:07.944Z,56.70
2022-11-07T12:06:19.546Z,56.88
2022-11-07T12:08:57.622Z,56.85
2022-11-07T12:11:28.071Z,56.84
2022-11-07T12:13:59.418Z,56.79
2022-11-07T12:16:31.413Z,56.60
2022-11-07T12:19:02.266Z,56.74
2022-11-07T12:21:33.867Z,56.75
2022-11-07T12:24:07.929Z,56.80
2022-11-07T12:26:37.100Z,56.68
2022-11-07T12:29:09.617Z,57.25
2022-11-07T12:31:46.489Z,57.69
2022-11-07T12:34:21.603Z,57.72
2022-11-07T12:36:57.924Z,57.95
2022-11-07T12:39:52.608Z,57.79
2022-11-07T12:42:26.684Z,57.60
2022-11-07T12:45:00.516Z,57.52
2022-11-07T12:47:38.488Z,57.40
2022-11-07T12:50:14.945Z,57.32
2022-11-07T12:52:50.373Z,57.25
2022-11-07T12:55:20.843Z,57.06
2022-11-07T12:57:48.732Z,56.91
2022-11-07T13:00:21.305Z,56.72
2022-11-07T13:03:12.484Z,56.98
2022-11-07T13:05:50.067Z,57.17
2022-11-07T13:08:21.900Z,57.01
2022-11-07T13:10:53.031Z,57.15
2022-11-07T13:13:22.445Z,57.08
2022-11-07T13:16:13.970Z,57.08
2022-11-07T13:18:37.680Z,56.98
2022-11-07T13:21:06.467Z,57.03
2022-11-07T13:23:35.465Z,57.15
2022-11-07T13:26:25.913Z,57.11
2022-11-07T13:28:57.500Z,56.96
2022-11-07T13:31:33.199Z,57.01
2022-11-07T13:34:12.147Z,57.10
2022-11-07T13:36:39.777Z,57.11
2022-11-07T13:39:09.079Z,57.10
2022-11-07T13:41:36.712Z,56.97
2022-11-07T13:44:05.564Z,57.25
2022-11-07T13:46:35.640Z,57.45
2022-11-07T13:49:05.042Z,57.13
2022-11-07T13:51:33.327Z,57.25
2022-11-07T13:54:06.322Z,57.20
2022-11-07T13:56:36.441Z,57.20
2022-11-07T13:59:04.645Z,57.24
2022-11-07T14:01:41.558Z,57.15
2022-11-07T14:04:14.893Z,57.40
2022-11-07T14:06:42.697Z,58.04
2022-11-07T14:09:10.321Z,57.53
2022-11-07T14:11:39.301Z,57.28
2022-11-07T14:14:07.477Z,57.66
2022-11-07T14:16:35.075Z,57.46
2022-11-07T14:19:06.402Z,57.82
2022-11-07T14:21:34.827Z,57.65
2022-11-07T14:24:02.461Z,57.41
2022-11-07T14:26:31.037Z,57.54
2022-11-07T14:29:00.831Z,57.63
2022-11-07T14:31:29.392Z,57.81
2022-11-07T14:33:58.502Z,58.09
2022-11-07T14:36:26.417Z,57.88
2022-11-07T14:38:54.882Z,58.04
2022-11-07T14:41:22.757Z,58.16
2022-11-07T14:43:50.457Z,58.35
2022-11-07T14:46:21.234Z,58.19
2022-11-07T14:48:49.560Z,57.56
2022-11-07T14:51:19.978Z,57.55
2022-11-07T14:53:52.256Z,57.71
2022-11-07T14:56:20.764Z,57.64
2022-11-07T14:58:48.389Z,57.29
2022-11-07T15:01:26.641Z,57.20
2022-11-07T15:03:56.555Z,57.12
2022-11-07T15:06:25.902Z,56.87
2022-11-07T15:08:57.549Z,56.69
2022-11-07T15:11:27.799Z,56.49
2022-11-07T15:14:22.926Z,57.00
2022-11-07T15:16:52.040Z,57.30
2022-11-07T15:19:20.643Z,57.32
2022-11-07T15:21:53.095Z,57.34
2022-11-07T15:24:33.885Z,57.62
2022-11-07T15:27:02.125Z,57.63
2022-11-07T15:29:32.109Z,57.71
2022-11-07T15:32:06.500Z,57.77
2022-11-07T15:34:58.587Z,57.96
2022-11-07T15:37:22.895Z,58.10
2022-11-07T15:39:50.501Z,58.21
2022-11-07T15:42:18.144Z,58.26
2022-11-07T15:44:45.701Z,58.24
2022-11-07T15:47:17.579Z,58.19
2022-11-07T15:49:45.288Z,58.38
2022-11-07T15:52:12.906Z,58.42
2022-11-07T15:54:40.516Z,58.57
2022-11-07T15:57:08.133Z,58.67
2022-11-07T15:59:37.087Z,58.78
2022-11-07T16:02:05.250Z,59.21
2022-11-07T16:04:39.331Z,59.12
2022-11-07T16:07:09.353Z,59.66
2022-11-07T16:09:36.894Z,60.18
2022-11-07T16:12:04.855Z,59.73
2022-11-07T16:14:47.816Z,59.95
2022-11-07T16:17:16.323Z,60.51
2022-11-07T16:19:45.323Z,60.48
2022-11-07T16:22:13.108Z,60.71
2022-11-07T16:24:40.693Z,60.83
2022-11-07T16:27:08.279Z,60.69
2022-11-07T16:29:35.897Z,60.86
2022-11-07T16:32:03.530Z,60.81
2022-11-07T16:34:31.536Z,60.89
2022-11-07T16:37:00.567Z,60.75
2022-11-07T16:39:28.341Z,61.09
2022-11-07T16:41:55.922Z,60.92
2022-11-07T16:44:26.292Z,61.13
2022-11-07T16:46:55.267Z,60.80
2022-11-07T16:49:25.256Z,60.86
2022-11-07T16:51:52.787Z,61.14
2022-11-07T16:54:21.760Z,60.42
2022-11-07T16:56:51.255Z,60.38
2022-11-07T16:59:19.407Z,59.99
2022-11-07T17:01:47.055Z,60.42
2022-11-07T17:04:14.709Z,60.31
2022-11-07T17:06:46.208Z,60.64
2022-11-07T17:09:14.289Z,60.40
2022-11-07T17:11:43.435Z,60.48
2022-11-07T17:14:11.031Z,60.30
2022-11-07T17:16:38.791Z,60.26
2022-11-07T17:19:06.481Z,60.59
2022-11-07T17:21:36.192Z,60.35
2022-11-07T17:24:03.838Z,60.08
2022-11-07T17:26:34.383Z,60.56
2022-11-07T17:29:03.453Z,60.30
2022-11-07T17:31:31.056Z,60.68
2022-11-07T17:33:58.720Z,60.38
2022-11-07T17:36:36.378Z,60.29
2022-11-07T17:39:06.109Z,61.61
2022-11-07T17:41:33.813Z,60.63
2022-11-07T17:44:03.739Z,60.25
2022-11-07T17:46:32.411Z,60.00
2022-11-07T17:49:00.716Z,59.69
2022-11-07T17:51:28.382Z,59.99
2022-11-07T17:53:56.198Z,59.30
2022-11-07T17:56:24.973Z,59.03
2022-11-07T17:58:54.513Z,58.85
2022-11-07T18:01:24.874Z,58.69
2022-11-07T18:03:53.079Z,58.46
2022-11-07T18:06:23.231Z,58.22
2022-11-07T18:08:52.510Z,58.26
2022-11-07T18:11:20.731Z,57.94
2022-11-07T18:13:50.488Z,57.97
2022-11-07T18:16:19.536Z,57.89
2022-11-07T18:18:48.476Z,57.83
2022-11-07T18:21:16.467Z,58.05
2022-11-07T18:23:44.663Z,57.86
2022-11-07T18:26:13.257Z,58.19
2022-11-07T18:28:41.120Z,57.85
2022-11-07T18:31:10.226Z,57.68
2022-11-07T18:33:38.155Z,57.41
2022-11-07T18:36:08.351Z,57.58
2022-11-07T18:38:36.013Z,57.34
2022-11-07T18:41:04.634Z,57.46
2022-11-07T18:43:32.303Z,57.50
2022-11-07T18:46:00.095Z,57.61
2022-11-07T18:48:30.072Z,57.46
2022-11-07T18:50:57.732Z,57.36
2022-11-07T18:53:26.769Z,57.37
2022-11-07T18:55:57.880Z,57.47
2022-11-07T18:58:25.510Z,57.54
2022-11-07T19:00:54.911Z,57.64
2022-11-07T19:03:22.686Z,57.37
2022-11-07T19:05:51.503Z,57.41
2022-11-07T19:08:19.483Z,57.38
2022-11-07T19:10:48.621Z,57.51
2022-11-07T19:13:16.306Z,57.46
2022-11-07T19:15:43.918Z,57.49
2022-11-07T19:18:11.603Z,57.35
2022-11-07T19:20:39.987Z,57.43
2022-11-07T19:23:07.669Z,57.17
2022-11-07T19:25:35.311Z,57.41
2022-11-07T19:28:04.483Z,57.48
2022-11-07T19:30:33.303Z,57.35
2022-11-07T19:33:02.097Z,57.32
2022-11-07T19:35:29.760Z,57.35
2022-11-07T19:37:57.366Z,57.35
2022-11-07T19:40:24.992Z,57.41
2022-11-07T19:42:52.752Z,57.22
2022-11-07T19:45:22.048Z,57.44
2022-11-07T19:47:49.783Z,57.35
2022-11-07T19:50:17.437Z,57.25
2022-11-07T19:52:45.016Z,57.35
2022-11-07T19:55:12.598Z,57.31
2022-11-07T19:57:40.170Z,57.20
2022-11-07T20:00:09.953Z,57.19
2022-11-07T20:02:44.441Z,57.17
2022-11-07T20:05:12.766Z,57.22
2022-11-07T20:07:40.408Z,57.05
2022-11-07T20:10:09.005Z,57.43
2022-11-07T20:12:36.608Z,57.26
2022-11-07T20:15:04.454Z,57.13
2022-11-07T20:17:32.205Z,57.33
2022-11-07T20:20:05.185Z,57.33
2022-11-07T20:22:34.955Z,57.59
2022-11-07T20:25:02.570Z,57.72
2022-11-07T20:27:30.200Z,57.90
2022-11-07T20:29:59.273Z,58.07
2022-11-07T20:32:26.919Z,58.18
2022-11-07T20:34:54.629Z,58.25
2022-11-07T20:37:23.572Z,58.30
2022-11-07T20:39:51.599Z,58.39
2022-11-07T20:42:19.208Z,58.49
2022-11-07T20:44:47.959Z,58.76
2022-11-07T20:47:15.625Z,58.84
2022-11-07T20:49:43.462Z,58.90
2022-11-07T20:52:11.059Z,59.13
2022-11-07T20:54:40.060Z,59.26
2022-11-07T20:57:07.671Z,59.53
2022-11-07T20:59:35.384Z,59.85
2022-11-07T21:02:04.011Z,59.84
2022-11-07T21:04:50.058Z,59.57
2022-11-07T21:07:20.064Z,59.78
2022-11-07T21:09:49.221Z,59.69
2022-11-07T21:12:16.846Z,59.93
2022-11-07T21:14:44.445Z,59.71
2022-11-07T21:17:12.047Z,60.19
2022-11-07T21:19:39.639Z,59.97
2022-11-07T21:22:07.236Z,60.36
2022-11-07T21:24:34.829Z,60.44
2022-11-07T21:27:04.686Z,60.42
2022-11-07T21:29:34.296Z,60.28
2022-11-07T21:32:02.466Z,60.32
2022-11-07T21:34:30.126Z,57.90
2022-11-07T21:36:57.758Z,59.12
2022-11-07T21:39:25.446Z,59.37
2022-11-07T21:41:53.194Z,59.94
2022-11-07T21:44:22.617Z,59.87
2022-11-07T21:46:50.211Z,60.00
2022-11-07T21:49:17.838Z,59.78
2022-11-07T21:51:45.468Z,59.56
2022-11-07T21:54:13.096Z,59.79
2022-11-07T21:56:41.013Z,59.76
2022-11-07T21:59:10.118Z,59.92
2022-11-07T22:01:40.273Z,59.74
2022-11-07T22:04:10.529Z,59.73
2022-11-07T22:06:39.646Z,59.68
2022-11-07T22:09:07.701Z,59.69
2022-11-07T22:11:35.426Z,59.73
2022-11-07T22:14:03.233Z,59.70
2022-11-07T22:16:31.502Z,59.93
2022-11-07T22:19:00.677Z,59.81
2022-11-07T22:21:28.234Z,59.64
2022-11-07T22:23:56.491Z,59.78
2022-11-07T22:26:25.134Z,59.50
2022-11-07T22:28:52.783Z,59.63
2022-11-07T22:31:22.406Z,59.63
2022-11-07T22:33:50.284Z,59.72
2022-11-07T22:36:19.300Z,59.66
2022-11-07T22:38:47.038Z,59.49
2022-11-07T22:41:15.561Z,59.27
2022-11-07T22:43:43.416Z,59.49
2022-11-07T22:46:12.105Z,59.38
2022-11-07T22:48:39.908Z,59.53
2022-11-07T22:51:08.651Z,59.29
2022-11-07T22:53:38.592Z,59.49
2022-11-07T22:56:09.981Z,59.60
2022-11-07T22:58:37.582Z,59.54
2022-11-07T23:01:05.415Z,59.09
2022-11-07T23:03:33.065Z,59.34
2022-11-07T23:06:03.328Z,59.18
2022-11-07T23:08:30.961Z,59.26
2022-11-07T23:11:40.216Z,59.24
2022-11-07T23:13:48.412Z,59.40
2022-11-07T23:16:20.634Z,59.17
2022-11-07T23:18:48.235Z,59.28
2022-11-07T23:21:15.903Z,59.40
2022-11-07T23:23:43.643Z,59.24
2022-11-07T23:26:13.713Z,59.37
2022-11-07T23:28:41.433Z,59.63
2022-11-07T23:31:09.196Z,59.48
2022-11-07T23:33:37.143Z,59.42
2022-11-07T23:36:05.190Z,59.54
2022-11-07T23:38:32.779Z,59.45
2022-11-07T23:41:02.175Z,59.36
2022-11-07T23:43:31.225Z,59.35
2022-11-07T23:46:16.660Z,59.43
2022-11-07T23:49:02.042Z,59.26
2022-11-07T23:51:29.811Z,59.26
2022-11-07T23:54:15.032Z,59.18
2022-11-07T23:56:42.921Z,59.29
2022-11-07T23:59:29.575Z,59.40
